Weather observations for the past three days for
Santa Barbara, Santa Barbara Municipal Airport
Metric (Imperial)
Date Time (pdt) Wind (kph) Vis. (km) Weather Sky Cond. Temperature (ºC) Relative Humidity Wind Chill (°C) Heat Index (°C) Pressure Precipitation (cm)
Air Dwpt 6 hour altimeter (cm) sea level (mb) 1 hr 3 hr 6 hr
Max. Min.
02 15:53 W 11 16.09 Overcast OVC016 16.7 12.8 78% 75.9 1011.9
02 14:53 Vrbl 6 16.09 Overcast BKN012 OVC016 16.7 12.8 78% 75.97 1012.9
02 13:53 W 11 6.44 Overcast with Haze BKN006 OVC013 16.1 12.8 81% 76.05 1014.0
02 12:53 W 9 8.05 Overcast with Haze BKN005 OVC009 15.6 12.8 84% 76.1 1014.4
02 11:53 SW 9 4.83 Fog/Mist BKN005 OVC014 15.6 13.3 86% 76.12 1014.9
02 10:53 S 9 4.02 Fog/Mist OVC005 14.4 13.3 15 13.9 93% 76.15 1015.1
02 09:53 SE 11 4.02 Fog/Mist OVC003 14.4 13.3 93% 76.12 1014.9
02 08:53 E 11 4.02 Fog/Mist OVC005 14.4 13.3 93% 76.12 1014.9
02 07:53 S 6 4.83 Fog/Mist OVC005 14.4 12.8 90% 76.12 1014.8
02 06:53 E 7 11.27 Overcast OVC008 13.9 12.2 90% 76.02 1013.4
02 05:53 NE 9 12.87 Overcast OVC008 13.9 12.2 90% 76.05 1013.7
02 04:53 E 7 12.87 Mostly Cloudy BKN009 BKN020 13.9 12.2 14.4 12.8 90% 76.05 1013.7
02 03:53 E 7 11.27 Fair CLR 12.8 12.2 96% 76 1013.2
02 02:53 E 9 12.87 Overcast BKN007 OVC010 13.9 12.2 90% 75.97 1012.8
02 01:53 E 15 12.87 Overcast OVC007 13.9 12.8 93% 76 1013.3
02 00:53 E 19 11.27 Overcast OVC007 13.9 12.8 93% 76 1013.1
01 23:53 E 7 11.27 A Few Clouds FEW007 13.9 12.8 93% 76 1013.0
01 22:53 SE 9 9.66 Fog/Mist CLR 13.9 12.2 17.8 13.3 90% 75.97 1012.7
01 21:53 Calm 12.87 Fair CLR 13.9 12.2 90% 75.97 1012.7
01 20:53 E 6 12.87 Fair CLR 14.4 12.2 87% 75.95 1012.4
01 19:53 Calm 11.27 Fair CLR 14.4 12.2 87% 75.92 1012.2
01 18:53 W 13 14.48 Fair CLR 15.6 12.2 80% 75.92 1012.3
01 17:53 W 19 14.48 Fair CLR 16.7 12.2 75% 75.92 1012.2
01 16:53 W 17 G 31 16.09 Fair CLR 17.8 12.2 19.4 16.1 70% 75.95 1012.5
01 15:53 W 20 14.48 Fair with Haze CLR 18.3 12.8 70% 76 1013.0
01 14:53 SW 15 11.27 Fair with Haze CLR 18.3 12.8 70% 76.05 1013.8
01 13:53 SW 15 16.09 Fair with Haze CLR 18.9 12.8 68% 76.07 1014.1
01 12:53 S 13 12.87 Mostly Cloudy BKN014 18.9 12.8 68% 76.1 1014.6
01 11:53 SE 9 14.48 Overcast OVC018 17.2 12.8 76% 76.15 1015.2
01 10:53 W 7 11.27 Overcast OVC018 16.1 12.8 16.7 11.1 81% 76.17 1015.4
01 09:53 S 9 9.66 Overcast with Haze OVC016 16.1 12.8 81% 76.17 1015.5
01 08:53 S 9 9.66 Fog/Mist OVC012 15 12.8 87% 76.15 1015.3
01 07:53 Vrbl 6 11.27 Mostly Cloudy BKN009 BKN016 15 12.8 87% 76.1 1014.6
01 06:53 Calm 8.05 Fog/Mist BKN009 BKN016 12.2 10.6 90% 76.05 1013.9
01 05:53 NE 9 14.48 Mostly Cloudy BKN023 11.7 10.6 93% 76.02 1013.4
01 04:53 Calm 12.87 A Few Clouds FEW023 11.7 10.6 16.1 11.7 93% 76 1013.1
01 03:53 E 6 11.27 Fair CLR 13.3 12.2 93% 76 1013.1
01 02:53 E 9 11.27 Fair CLR 13.9 12.2 90% 75.97 1012.9
01 01:53 E 17 11.27 Fair CLR 14.4 12.8 90% 75.95 1012.6
01 00:53 E 11 12.87 Fair CLR 15 12.2 83% 75.97 1012.8
30 23:53 E 11 12.87 Fair CLR 15 12.8 87% 75.95 1012.3
30 22:53 E 13 12.87 Fair CLR 15.6 12.8 18.3 15.6 84% 75.9 1011.7
30 21:53 SE 9 11.27 Fair CLR 15.6 13.3 86% 75.84 1011.1
30 20:53 SE 19 12.87 Fair CLR 15.6 13.3 86% 75.79 1010.3
30 19:53 SE 15 12.87 Fair CLR 16.1 12.2 78% 75.74 1009.9
30 18:53 SE 13 11.27 Fair CLR 17.2 13.3 78% 75.74 1009.6
30 17:53 SE 17 11.27 Fair CLR 17.8 13.3 75% 75.74 1009.6
30 16:53 SE 11 12.87 Fair CLR 18.3 13.3 21.1 16.7 73% 75.74 1009.7
30 15:53 SE 13 12.87 Fair CLR 18.3 12.8 70% 75.77 1010.1
30 14:53 SW 13 16.09 Fair CLR 20.6 10.6 53% 75.82 1010.9
30 13:53 SW 19 16.09 Fair CLR 19.4 11.7 61% 75.9 1011.6
30 12:53 Vrbl 9 16.09 Fair with Haze CLR 18.9 12.2 65% 75.92 1012.1
30 11:53 S 11 14.48 Fair with Haze CLR 18.3 12.8 70% 75.97 1012.8
30 10:53 SE 15 12.87 Fair with Haze CLR 16.7 12.8 17.2 10 78% 76 1013.2
30 09:53 SE 19 12.87 Fair CLR 16.7 12.8 78% 76 1013.2
30 08:53 SE 13 12.87 Fair CLR 16.1 12.8 81% 76 1013.0
30 07:53 Calm 16.09 Fair CLR 14.4 10.6 78% 76 1013.1
30 06:53 Calm 16.09 Fair CLR 10.6 8.9 89% 75.97 1012.9
30 05:53 NW 6 16.09 Fair CLR 10.6 8.9 89% 75.97 1012.7
30 04:53 Calm 16.09 Fair CLR 11.7 10 15.6 10.6 89% 75.97 1012.7
30 03:53 N 6 14.48 Fair CLR 11.7 10.6 93% 75.97 1012.9
30 02:53 NE 7 12.87 Fair CLR 12.2 11.1 93% 76.02 1013.4
30 01:53 E 7 12.87 Fair CLR 13.9 12.2 90% 76.05 1013.7
30 00:53 E 7 14.48 Fair CLR 14.4 12.2 87% 76.05 1013.9
29 23:53 E 15 14.48 Fair CLR 15.6 12.2 80% 76.05 1014.0
29 22:53 E 15 14.48 Fair CLR 15.6 12.8 21.1 14.4 84% 76.07 1014.1
29 21:53 SE 13 12.87 Fair CLR 15 13.3 90% 76.07 1014.1
29 20:53 SE 11 12.87 Fair CLR 15 13.3 90% 76.02 1013.5
29 19:53 SE 17 12.87 Fair CLR 16.1 12.8 81% 76 1013.3
29 18:53 SE 7 14.48 Fair CLR 18.3 12.8 70% 76 1013.2
29 17:53 S 7 16.09 Fair CLR 20 12.8 63% 76.02 1013.5
29 16:53 W 13 G 28 16.09 Fair CLR 21.1 10 22.2 17.8 49% 76.05 1013.8
Date Time (pdt) Wind (kph) Vis. (km) Weather Sky Cond. Air Dwpt Max. Min. Relative Humidity Wind Chill (°C) Heat Index (°C) altimeter (cm) sea level (mb) 1 hr 3 hr 6 hr
6 hour
Temperature (ºC) Pressure Precipitation (cm)